Time;durP1;ratioP1;P1;durP2;ratioP2;P2;SDS_P1;SDS_P2;PMS_P1;PMS_P2;Temp;Humidity;BMP_temperature;BMP_pressure;BME280_temperature;BME280_humidity;BME280_pressure;Samples;Min_cycle;Max_cycle;Signal;HPM_P1;HPM_P2
2022/07/18 00:01:42;;;;;;;5.20;2.60;;;15.70;99.90;;;;;;4962847;28;20377;-73
2022/07/18 00:04:07;;;;;;;7.13;2.78;;;15.70;99.90;;;;;;4993633;28;20052;-73
2022/07/18 00:06:33;;;;;;;5.38;2.40;;;15.70;99.90;;;;;;4980821;28;20070;-73
2022/07/18 00:08:59;;;;;;;5.60;2.58;;;15.60;99.90;;;;;;4967094;28;20038;-72
2022/07/18 00:11:25;;;;;;;7.10;2.45;;;15.60;99.90;;;;;;4983879;28;20385;-72
2022/07/18 00:13:51;;;;;;;5.70;2.78;;;15.60;99.90;;;;;;4989997;28;20222;-72
2022/07/18 00:16:17;;;;;;;6.38;3.05;;;15.60;99.90;;;;;;4961310;28;20054;-72
2022/07/18 00:18:43;;;;;;;5.95;2.63;;;15.60;99.90;;;;;;4981555;28;20050;-72
2022/07/18 00:21:11;;;;;;;7.72;2.97;;;15.50;99.90;;;;;;4974855;28;20584;-71
2022/07/18 00:23:37;;;;;;;6.60;2.83;;;15.50;99.90;;;;;;4961631;28;20576;-72
2022/07/18 00:26:03;;;;;;;6.70;2.70;;;15.50;99.90;;;;;;4963960;28;20545;-71
2022/07/18 00:28:29;;;;;;;6.25;2.58;;;15.50;99.90;;;;;;4978447;28;20051;-72
2022/07/18 00:30:55;;;;;;;6.38;3.53;;;15.40;99.90;;;;;;4977844;28;20042;-72
2022/07/18 00:33:20;;;;;;;8.52;3.15;;;15.40;99.90;;;;;;4988240;28;20055;-73
2022/07/18 00:35:46;;;;;;;6.97;2.90;;;15.40;99.90;;;;;;4983318;28;20498;-72
2022/07/18 00:38:12;;;;;;;6.80;3.10;;;15.40;99.90;;;;;;4999825;28;20532;-73
2022/07/18 00:40:37;;;;;;;8.13;3.58;;;15.40;99.90;;;;;;5000041;28;20034;-73
2022/07/18 00:43:03;;;;;;;6.07;3.00;;;15.30;99.90;;;;;;4984276;28;20399;-72
2022/07/18 00:45:29;;;;;;;6.60;3.28;;;15.40;99.90;;;;;;4982841;28;20043;-71
2022/07/18 00:47:55;;;;;;;6.78;2.92;;;15.40;99.90;;;;;;4984165;28;20030;-72
2022/07/18 00:50:22;;;;;;;7.30;3.17;;;15.30;99.90;;;;;;4983173;28;20041;-72
2022/07/18 00:52:48;;;;;;;6.95;3.20;;;15.30;99.90;;;;;;4983629;28;20038;-72
2022/07/18 00:55:14;;;;;;;6.18;3.28;;;15.30;99.90;;;;;;5000776;28;20455;-72
2022/07/18 00:57:42;;;;;;;7.68;3.45;;;15.30;99.90;;;;;;4967723;28;20042;-72
2022/07/18 01:02:57;;;;;;;6.28;3.15;;;15.20;99.90;;;;;;4984180;28;20054;-73
2022/07/18 01:05:23;;;;;;;6.63;3.42;;;15.20;99.90;;;;;;4984813;28;20507;-73
2022/07/18 01:07:51;;;;;;;9.23;4.20;;;15.20;99.90;;;;;;4996310;28;20045;-73
2022/07/18 01:10:18;;;;;;;7.13;3.63;;;15.20;99.90;;;;;;4992564;28;20637;-73
2022/07/18 01:12:44;;;;;;;9.38;4.38;;;15.20;99.90;;;;;;5011479;28;20046;-73
2022/07/18 01:15:11;;;;;;;7.88;3.72;;;15.20;99.90;;;;;;5011907;28;20175;-73
2022/07/18 01:17:37;;;;;;;8.52;4.50;;;15.20;99.90;;;;;;5002143;28;20054;-73
2022/07/18 01:20:04;;;;;;;10.18;4.20;;;15.20;99.90;;;;;;4989501;28;20430;-71
2022/07/18 01:22:30;;;;;;;9.27;4.20;;;15.20;99.90;;;;;;4985736;28;20536;-72
2022/07/18 01:24:56;;;;;;;7.90;3.88;;;15.20;99.90;;;;;;5012831;28;20050;-73
2022/07/18 01:27:22;;;;;;;12.93;4.03;;;15.20;99.90;;;;;;4987129;28;20458;-73
2022/07/18 01:29:49;;;;;;;9.85;4.10;;;15.20;99.90;;;;;;4995275;28;20721;-73
2022/07/18 01:32:17;;;;;;;7.22;3.80;;;15.20;99.90;;;;;;4985919;28;20061;-73
2022/07/18 01:34:45;;;;;;;9.15;4.18;;;15.20;99.90;;;;;;4989471;28;20407;-73
2022/07/18 01:37:11;;;;;;;8.07;3.67;;;15.10;99.90;;;;;;4991104;28;20608;-73
2022/07/18 01:39:37;;;;;;;8.60;4.07;;;15.10;99.90;;;;;;4982902;28;20050;-73
2022/07/18 01:42:06;;;;;;;9.45;4.47;;;15.10;99.90;;;;;;5000208;28;20268;-73
2022/07/18 01:44:33;;;;;;;8.35;4.53;;;15.10;99.90;;;;;;5048257;28;20054;-73
2022/07/18 01:46:59;;;;;;;11.00;5.00;;;15.10;99.90;;;;;;4984222;28;20053;-73
2022/07/18 01:49:29;;;;;;;11.13;4.43;;;15.10;99.90;;;;;;4979458;28;20121;-73
2022/07/18 01:51:56;;;;;;;10.17;4.73;;;15.10;99.90;;;;;;5004660;28;20091;-73
2022/07/18 01:54:28;;;;;;;11.70;4.90;;;15.20;99.90;;;;;;4989271;28;20277;-73
2022/07/18 01:56:55;;;;;;;8.20;4.38;;;15.10;99.90;;;;;;4984942;28;20172;-73
2022/07/18 01:59:21;;;;;;;10.15;4.40;;;15.10;99.90;;;;;;4996393;28;20105;-73
2022/07/18 02:01:46;;;;;;;9.13;4.60;;;15.10;99.90;;;;;;5004284;28;20064;-73
2022/07/18 02:04:12;;;;;;;9.38;4.47;;;15.00;99.90;;;;;;4981072;28;20054;-73
2022/07/18 02:06:38;;;;;;;7.43;3.90;;;14.80;99.90;;;;;;5003240;28;20043;-73
2022/07/18 02:09:06;;;;;;;8.23;4.35;;;14.90;99.90;;;;;;5011038;28;20030;-73
2022/07/18 02:11:32;;;;;;;9.32;4.25;;;14.80;99.90;;;;;;4993570;28;20418;-73
2022/07/18 02:13:58;;;;;;;7.05;3.90;;;14.80;99.90;;;;;;5002997;28;20137;-73
2022/07/18 02:16:23;;;;;;;9.27;4.10;;;14.80;99.90;;;;;;4989554;28;20102;-73
2022/07/18 02:18:49;;;;;;;9.85;4.30;;;14.70;99.90;;;;;;4984510;28;20061;-73
2022/07/18 02:21:15;;;;;;;9.15;4.47;;;14.70;99.90;;;;;;4990691;28;20043;-73
2022/07/18 02:23:42;;;;;;;9.18;4.47;;;14.70;99.90;;;;;;5013835;28;20073;-73
2022/07/18 02:26:08;;;;;;;9.10;4.03;;;14.70;99.90;;;;;;5015615;28;20034;-73
2022/07/18 02:28:35;;;;;;;8.32;4.10;;;14.70;99.90;;;;;;4982086;28;20395;-73
2022/07/18 02:31:00;;;;;;;9.95;4.45;;;14.80;99.90;;;;;;5018476;28;20559;-72
2022/07/18 02:33:26;;;;;;;9.65;4.25;;;14.70;99.90;;;;;;4985267;28;20053;-74
2022/07/18 02:35:52;;;;;;;9.95;4.30;;;14.70;99.90;;;;;;5003835;28;20491;-73
2022/07/18 02:38:18;;;;;;;8.20;4.25;;;14.70;99.90;;;;;;5007836;28;20042;-72
2022/07/18 02:40:43;;;;;;;9.80;4.15;;;14.70;99.90;;;;;;4991390;28;20174;-73
2022/07/18 02:43:09;;;;;;;10.25;4.50;;;14.70;99.90;;;;;;4991667;28;20042;-73
2022/07/18 02:45:35;;;;;;;7.75;4.55;;;14.70;99.90;;;;;;4993570;28;20163;-73
2022/07/18 02:48:01;;;;;;;14.38;5.13;;;14.70;99.90;;;;;;4997372;28;20038;-73
2022/07/18 02:50:27;;;;;;;9.65;5.20;;;14.60;99.90;;;;;;4993167;28;20053;-73
2022/07/18 02:52:52;;;;;;;9.23;4.90;;;14.70;99.90;;;;;;5007650;28;20050;-72
2022/07/18 02:55:18;;;;;;;10.60;5.32;;;14.70;99.90;;;;;;4996436;28;20034;-73
2022/07/18 02:57:44;;;;;;;11.05;5.32;;;14.70;99.90;;;;;;5010964;28;20683;-73
2022/07/18 03:00:13;;;;;;;10.77;5.22;;;14.70;99.90;;;;;;5015821;28;20046;-73
2022/07/18 03:02:39;;;;;;;11.05;5.10;;;14.70;99.90;;;;;;5028837;28;20100;-74
2022/07/18 03:05:05;;;;;;;12.15;4.40;;;14.70;99.90;;;;;;5007279;28;20051;-75
2022/07/18 03:07:31;;;;;;;13.30;5.30;;;14.80;99.90;;;;;;5015500;28;20068;-74
2022/07/18 03:09:57;;;;;;;9.90;5.18;;;14.80;99.90;;;;;;5020907;28;20134;-74
2022/07/18 03:12:23;;;;;;;14.00;5.47;;;14.80;99.90;;;;;;5005233;28;20042;-74
2022/07/18 03:14:49;;;;;;;11.98;5.25;;;14.80;99.90;;;;;;4990279;28;20512;-74
2022/07/18 03:17:15;;;;;;;10.30;5.15;;;14.80;99.90;;;;;;5005910;28;20058;-75
2022/07/18 03:19:40;;;;;;;10.57;5.53;;;14.80;99.90;;;;;;5019217;28;20811;-74
2022/07/18 03:22:06;;;;;;;10.07;5.65;;;14.80;99.90;;;;;;5003611;28;20046;-74
2022/07/18 03:24:32;;;;;;;8.95;4.78;;;14.80;99.90;;;;;;5018562;28;20386;-74
2022/07/18 03:26:58;;;;;;;11.63;5.47;;;14.90;99.90;;;;;;5045219;28;20038;-74
2022/07/18 03:29:24;;;;;;;12.95;5.88;;;14.90;99.90;;;;;;4999897;28;20712;-74
2022/07/18 03:31:50;;;;;;;10.50;5.65;;;14.90;99.90;;;;;;5038457;28;20485;-74
2022/07/18 03:34:16;;;;;;;12.20;5.78;;;14.90;99.90;;;;;;4984561;28;20050;-74
2022/07/18 03:36:41;;;;;;;8.82;4.38;;;14.90;99.90;;;;;;4984079;28;20034;-74
2022/07/18 03:39:08;;;;;;;11.05;5.85;;;14.80;99.90;;;;;;5004930;28;20042;-74
2022/07/18 03:41:34;;;;;;;10.05;5.28;;;14.90;99.90;;;;;;5000901;28;20124;-74
2022/07/18 03:44:00;;;;;;;9.80;5.20;;;14.80;99.90;;;;;;5000226;28;20444;-74
2022/07/18 03:46:29;;;;;;;10.07;5.10;;;14.80;99.90;;;;;;5031550;28;20524;-74
2022/07/18 03:48:55;;;;;;;11.50;5.47;;;14.80;99.90;;;;;;5031305;28;20149;-73
2022/07/18 03:51:20;;;;;;;11.10;5.18;;;14.80;99.90;;;;;;5019704;28;20074;-74
2022/07/18 03:53:46;;;;;;;9.55;5.05;;;14.80;99.90;;;;;;5004571;28;20408;-74
2022/07/18 03:56:12;;;;;;;9.73;5.40;;;14.90;99.90;;;;;;5004979;28;20050;-74
2022/07/18 03:58:38;;;;;;;10.40;5.88;;;14.80;99.90;;;;;;5000406;28;20099;-74
2022/07/18 04:01:03;;;;;;;9.70;5.10;;;14.90;99.90;;;;;;5012648;28;20107;-74
2022/07/18 04:03:29;;;;;;;11.65;5.38;;;14.80;99.90;;;;;;5043585;27;20105;-74
2022/07/18 04:05:55;;;;;;;9.60;4.90;;;14.80;99.90;;;;;;4997373;28;20043;-74
2022/07/18 04:08:21;;;;;;;12.55;5.43;;;14.80;99.90;;;;;;4990554;28;20082;-74
2022/07/18 04:10:47;;;;;;;12.32;5.75;;;14.80;99.90;;;;;;4981255;28;20116;-74
2022/07/18 04:13:13;;;;;;;11.18;5.43;;;14.80;99.90;;;;;;4988922;28;20411;-74
2022/07/18 04:15:39;;;;;;;9.68;5.05;;;14.80;99.90;;;;;;4988409;28;20048;-74
2022/07/18 04:18:07;;;;;;;10.95;5.55;;;14.90;99.90;;;;;;4996110;28;20399;-73
2022/07/18 04:20:34;;;;;;;11.88;5.10;;;14.90;99.90;;;;;;4991824;28;20453;-74
2022/07/18 04:23:02;;;;;;;9.65;5.47;;;15.00;99.90;;;;;;4988408;28;20479;-74
2022/07/18 04:25:35;;;;;;;9.35;5.20;;;15.10;99.90;;;;;;4984867;28;20042;-75
2022/07/18 04:28:00;;;;;;;10.73;5.20;;;15.10;99.90;;;;;;5013523;28;20050;-75
2022/07/18 04:30:27;;;;;;;10.95;4.80;;;15.20;99.90;;;;;;4984751;28;20099;-75
2022/07/18 04:32:54;;;;;;;8.95;4.68;;;15.20;99.90;;;;;;4985634;28;20050;-75
2022/07/18 04:35:21;;;;;;;10.02;4.75;;;15.30;99.90;;;;;;4985152;28;20077;-76
2022/07/18 04:37:46;;;;;;;9.80;4.32;;;15.40;99.90;;;;;;4983619;28;20372;-75
2022/07/18 04:40:13;;;;;;;9.07;4.32;;;15.40;99.90;;;;;;4984227;28;20053;-75
2022/07/18 04:42:39;;;;;;;11.20;5.07;;;15.50;99.90;;;;;;4986885;28;20504;-73
2022/07/18 04:45:05;;;;;;;11.23;4.60;;;15.60;99.90;;;;;;4970120;28;20054;-75
2022/07/18 04:47:31;;;;;;;10.73;4.28;;;15.70;99.90;;;;;;4979302;28;20311;-75
2022/07/18 04:49:57;;;;;;;10.52;4.38;;;15.70;99.90;;;;;;4984327;28;20045;-75
2022/07/18 04:52:23;;;;;;;7.95;4.25;;;15.70;99.90;;;;;;4989842;28;21916;-75
2022/07/18 04:54:50;;;;;;;9.80;4.43;;;15.90;99.90;;;;;;4988878;28;20065;-75
2022/07/18 04:57:16;;;;;;;9.32;4.30;;;16.00;99.90;;;;;;4985902;28;20058;-75
2022/07/18 04:59:43;;;;;;;9.75;4.40;;;16.10;99.90;;;;;;4983146;28;20120;-75
2022/07/18 05:02:09;;;;;;;9.25;4.10;;;16.10;99.90;;;;;;4957854;28;20130;-73
2022/07/18 05:04:36;;;;;;;7.55;3.80;;;16.10;99.90;;;;;;4989716;28;20082;-73
2022/07/18 05:07:01;;;;;;;10.90;4.22;;;16.10;99.90;;;;;;5016277;28;20054;-75
2022/07/18 05:09:28;;;;;;;12.00;4.43;;;16.20;99.90;;;;;;4980399;28;20046;-76
2022/07/18 05:11:54;;;;;;;10.52;3.92;;;16.20;99.90;;;;;;4986718;28;20042;-75
2022/07/18 05:14:20;;;;;;;9.32;3.95;;;16.30;99.90;;;;;;4983093;28;20060;-76
2022/07/18 05:16:47;;;;;;;8.48;3.75;;;16.30;99.90;;;;;;4982939;28;20070;-75
2022/07/18 05:19:15;;;;;;;9.90;4.05;;;16.30;99.90;;;;;;4965112;28;20058;-75
2022/07/18 05:21:41;;;;;;;9.23;4.05;;;16.40;99.90;;;;;;4989195;28;20065;-77
2022/07/18 05:24:07;;;;;;;8.90;3.95;;;16.40;99.90;;;;;;4985582;28;20521;-74
2022/07/18 05:26:33;;;;;;;10.80;3.72;;;16.50;99.90;;;;;;4988808;28;20042;-75
2022/07/18 05:28:59;;;;;;;11.15;3.88;;;16.50;99.90;;;;;;4980496;28;20074;-74
2022/07/18 05:31:24;;;;;;;10.00;4.00;;;16.60;99.90;;;;;;4983703;28;20070;-75
2022/07/18 05:33:50;;;;;;;8.70;3.85;;;16.60;99.90;;;;;;4990308;28;20050;-74
2022/07/18 05:36:16;;;;;;;10.52;4.68;;;16.70;99.90;;;;;;4978847;28;20796;-74
2022/07/18 05:38:42;;;;;;;8.88;3.70;;;16.60;99.90;;;;;;4979418;28;20313;-74
2022/07/18 05:48:29;;;;;;;11.30;4.05;;;16.70;99.90;;;;;;4986109;28;20338;-74
2022/07/18 05:50:55;;;;;;;7.72;3.65;;;16.70;99.90;;;;;;5009420;28;20790;-74
2022/07/18 05:53:21;;;;;;;9.90;4.40;;;16.80;99.90;;;;;;5011891;28;20040;-73
2022/07/18 05:55:46;;;;;;;10.60;4.35;;;16.80;99.90;;;;;;5007274;28;20044;-73
2022/07/18 05:58:12;;;;;;;8.55;3.55;;;16.90;99.90;;;;;;5001345;28;20040;-74
2022/07/18 06:00:38;;;;;;;9.45;3.97;;;17.00;99.90;;;;;;5011538;28;20535;-75
2022/07/18 06:03:04;;;;;;;8.40;3.60;;;17.10;99.90;;;;;;5022550;28;20051;-74
2022/07/18 06:05:30;;;;;;;10.07;3.95;;;17.20;99.90;;;;;;5011320;28;20095;-74
2022/07/18 06:07:56;;;;;;;8.88;3.58;;;17.40;99.90;;;;;;5009099;28;20050;-75
2022/07/18 06:10:23;;;;;;;7.13;3.50;;;17.50;99.90;;;;;;5004056;28;20077;-75
2022/07/18 06:12:50;;;;;;;8.00;3.47;;;17.60;99.90;;;;;;5014459;28;20065;-74
2022/07/18 06:15:16;;;;;;;8.63;3.13;;;17.70;99.90;;;;;;4991419;28;20052;-75
2022/07/18 06:17:42;;;;;;;7.75;3.20;;;17.80;99.90;;;;;;5007795;28;20139;-75
2022/07/18 06:20:08;;;;;;;10.23;3.03;;;18.00;99.90;;;;;;4993372;28;20113;-75
2022/07/18 06:22:35;;;;;;;9.13;3.40;;;18.10;99.90;;;;;;5003582;28;20102;-75
2022/07/18 06:25:01;;;;;;;7.72;3.67;;;18.40;99.90;;;;;;5018525;28;20044;-75
2022/07/18 06:27:27;;;;;;;6.88;3.08;;;18.70;99.90;;;;;;5003732;28;20164;-76
2022/07/18 06:29:53;;;;;;;7.72;3.15;;;18.90;99.90;;;;;;5009947;28;20052;-75
2022/07/18 06:32:18;;;;;;;8.38;2.72;;;19.00;99.90;;;;;;4992309;28;20054;-75
2022/07/18 06:34:44;;;;;;;7.38;2.70;;;19.10;99.90;;;;;;5010800;28;20044;-74
2022/07/18 06:37:11;;;;;;;7.07;2.83;;;19.10;99.90;;;;;;5008090;28;20046;-75
2022/07/18 06:39:37;;;;;;;6.97;2.83;;;19.30;99.90;;;;;;5008911;28;20047;-75
2022/07/18 06:42:03;;;;;;;7.53;2.55;;;19.40;99.90;;;;;;5012750;28;20054;-74
2022/07/18 06:44:29;;;;;;;6.47;2.47;;;19.90;99.90;;;;;;5028442;28;20061;-75
2022/07/18 06:46:57;;;;;;;9.98;2.80;;;19.90;99.90;;;;;;5009540;28;20051;-75
2022/07/18 06:49:23;;;;;;;9.18;2.33;;;19.70;99.90;;;;;;5016573;28;20050;-75
2022/07/18 06:51:48;;;;;;;7.07;2.80;;;19.80;99.90;;;;;;5007083;28;20050;-74
2022/07/18 06:54:14;;;;;;;8.95;2.65;;;19.80;99.90;;;;;;4984531;28;20043;-74
2022/07/18 06:56:40;;;;;;;8.32;2.35;;;19.80;99.90;;;;;;4994494;28;20046;-76
2022/07/18 06:59:06;;;;;;;9.98;3.13;;;19.90;99.90;;;;;;5014556;28;20515;-75
2022/07/18 07:01:32;;;;;;;10.52;3.22;;;20.00;99.90;;;;;;5022689;28;20155;-75
2022/07/18 07:03:58;;;;;;;8.55;2.70;;;20.00;99.90;;;;;;5004850;28;20054;-69
2022/07/18 07:06:23;;;;;;;9.30;3.00;;;20.10;99.90;;;;;;5012774;28;20050;-75
2022/07/18 07:08:49;;;;;;;9.13;2.70;;;20.20;99.90;;;;;;5003095;28;20141;-74
2022/07/18 07:11:15;;;;;;;8.23;2.42;;;20.30;99.90;;;;;;5007248;28;20097;-74
2022/07/18 07:13:41;;;;;;;10.80;2.58;;;20.40;99.90;;;;;;5016725;28;20053;-74
2022/07/18 07:16:07;;;;;;;7.72;2.80;;;20.60;99.90;;;;;;5009780;28;20058;-70
2022/07/18 07:18:33;;;;;;;10.10;2.97;;;20.80;99.90;;;;;;4997077;28;20050;-73
2022/07/18 07:20:59;;;;;;;7.82;2.70;;;21.10;99.90;;;;;;5015475;28;20100;-73
2022/07/18 07:23:24;;;;;;;7.75;2.80;;;21.20;99.90;;;;;;5014537;27;20039;-73
2022/07/18 07:25:50;;;;;;;10.20;3.08;;;21.50;99.90;;;;;;4982446;28;20132;-73
2022/07/18 07:28:16;;;;;;;7.47;3.10;;;21.60;99.90;;;;;;4992495;28;20047;-74
2022/07/18 07:30:42;;;;;;;8.82;2.63;;;21.90;99.90;;;;;;4988583;28;20372;-73
2022/07/18 07:33:09;;;;;;;9.70;2.58;;;22.20;99.90;;;;;;5006356;28;20082;-73
2022/07/18 07:35:35;;;;;;;9.27;2.70;;;22.70;99.90;;;;;;4992079;28;20049;-73
2022/07/18 07:38:01;;;;;;;6.40;2.38;;;23.70;99.90;;;;;;4999922;28;20042;-73
2022/07/18 07:40:29;;;;;;;8.38;2.10;;;24.20;99.90;;;;;;4984738;28;20042;-74
2022/07/18 07:43:07;;;;;;;6.80;2.28;;;24.60;99.90;;;;;;4998503;28;20131;-73
2022/07/18 07:45:32;;;;;;;6.03;2.10;;;24.90;99.90;;;;;;5003184;28;20054;-74
2022/07/18 07:47:58;;;;;;;9.25;2.60;;;25.10;99.90;;;;;;4985393;28;20050;-73
2022/07/18 07:50:24;;;;;;;6.55;2.15;;;25.30;99.90;;;;;;5002129;28;20084;-73
2022/07/18 07:52:50;;;;;;;7.38;2.10;;;25.50;99.90;;;;;;5017736;27;20549;-74
2022/07/18 07:55:15;;;;;;;6.60;2.30;;;25.70;99.90;;;;;;5001281;28;20095;-73
2022/07/18 07:57:41;;;;;;;22.83;2.92;;;25.80;99.70;;;;;;4991186;28;20054;-73
2022/07/18 08:00:09;;;;;;;8.23;2.05;;;25.90;99.70;;;;;;4982529;28;20082;-73
2022/07/18 08:02:35;;;;;;;9.68;2.13;;;26.10;99.90;;;;;;4988826;28;20042;-71
2022/07/18 08:05:01;;;;;;;7.07;2.50;;;26.20;98.20;;;;;;4978922;28;20276;-74
2022/07/18 08:07:26;;;;;;;8.73;2.03;;;26.20;98.70;;;;;;4979446;28;20162;-74
2022/07/18 08:09:52;;;;;;;6.78;2.28;;;26.20;97.50;;;;;;4947730;28;20054;-72
2022/07/18 08:12:18;;;;;;;5.35;1.77;;;26.20;96.90;;;;;;4975624;28;20129;-73
2022/07/18 08:14:44;;;;;;;5.07;1.80;;;26.20;97.30;;;;;;5006135;28;20046;-73
2022/07/18 08:17:10;;;;;;;6.50;1.88;;;26.20;96.90;;;;;;4972756;28;20451;-73
2022/07/18 08:19:36;;;;;;;9.32;1.92;;;26.10;96.10;;;;;;4983134;28;20478;-73
2022/07/18 08:22:02;;;;;;;5.13;1.77;;;26.30;97.60;;;;;;4986782;28;20067;-75
2022/07/18 08:24:28;;;;;;;5.72;2.05;;;26.60;95.40;;;;;;4981534;28;20133;-71
2022/07/18 08:26:53;;;;;;;6.60;2.17;;;26.70;93.50;;;;;;4986417;28;20054;-72
2022/07/18 08:29:19;;;;;;;10.23;1.88;;;26.80;91.60;;;;;;4986254;28;20129;-70
2022/07/18 08:31:45;;;;;;;6.15;1.50;;;27.00;94.40;;;;;;4984432;28;20047;-72
2022/07/18 08:34:10;;;;;;;6.88;1.88;;;27.10;90.90;;;;;;4984138;28;20382;-71
2022/07/18 08:36:36;;;;;;;6.07;1.67;;;27.20;92.70;;;;;;4978689;28;20136;-74
2022/07/18 08:39:02;;;;;;;7.13;1.90;;;27.20;93.10;;;;;;4986909;28;20446;-73
2022/07/18 08:41:28;;;;;;;4.30;1.60;;;27.00;90.60;;;;;;4992785;28;20069;-69
2022/07/18 08:43:55;;;;;;;6.20;1.45;;;26.80;91.10;;;;;;4988507;28;20046;-72
2022/07/18 08:46:22;;;;;;;9.55;1.80;;;26.70;91.40;;;;;;4986768;28;20058;-71
2022/07/18 08:48:49;;;;;;;9.23;2.22;;;26.50;91.00;;;;;;5010317;27;20643;-72
2022/07/18 08:51:15;;;;;;;5.88;1.55;;;26.30;88.80;;;;;;5011864;28;20680;-73
2022/07/18 08:53:41;;;;;;;8.05;1.80;;;26.20;90.30;;;;;;4988515;28;20610;-72
2022/07/18 08:56:07;;;;;;;6.75;1.40;;;26.10;89.30;;;;;;5020148;28;20400;-73
2022/07/18 08:58:32;;;;;;;6.47;1.60;;;25.90;90.20;;;;;;4980700;28;20042;-72
2022/07/18 09:00:58;;;;;;;6.60;1.88;;;25.80;90.00;;;;;;4977150;28;20125;-73
2022/07/18 09:03:24;;;;;;;7.35;1.80;;;25.80;89.50;;;;;;4980018;28;20057;-72
2022/07/18 09:06:04;;;;;;;6.18;1.70;;;25.80;89.20;;;;;;4980546;28;20043;-74
2022/07/18 09:08:30;;;;;;;6.38;1.50;;;26.00;90.50;;;;;;5000867;28;20035;-73
2022/07/18 09:10:58;;;;;;;8.50;1.65;;;26.40;91.20;;;;;;4984824;28;20061;-73
2022/07/18 09:13:50;;;;;;;6.13;1.30;;;26.60;91.30;;;;;;4969344;28;20074;-74
2022/07/18 09:16:16;;;;;;;8.80;1.48;;;27.00;90.90;;;;;;4996832;28;20065;-73
2022/07/18 09:18:47;;;;;;;7.47;1.80;;;27.30;90.90;;;;;;4987677;28;20046;-69
2022/07/18 09:21:21;;;;;;;4.82;1.90;;;27.60;91.40;;;;;;4986899;28;20101;-73
2022/07/18 09:23:49;;;;;;;5.53;1.20;;;27.80;89.30;;;;;;4981764;28;20538;-71
2022/07/18 09:26:42;;;;;;;8.10;1.70;;;28.10;90.30;;;;;;4991072;28;20418;-73
2022/07/18 09:29:14;;;;;;;7.07;1.90;;;28.30;88.30;;;;;;5004295;28;20103;-75
2022/07/18 09:31:51;;;;;;;5.28;1.50;;;28.40;86.70;;;;;;4980396;28;20123;-69
2022/07/18 09:34:38;;;;;;;7.10;1.73;;;28.50;86.80;;;;;;4982345;28;20464;-72
2022/07/18 09:37:05;;;;;;;7.72;1.75;;;28.70;87.10;;;;;;5019095;28;20091;-73
2022/07/18 09:39:30;;;;;;;6.25;1.60;;;28.90;86.00;;;;;;4998333;28;20111;-74
2022/07/18 09:42:16;;;;;;;4.35;1.70;;;28.80;85.00;;;;;;4976825;28;20118;-71
2022/07/18 09:44:42;;;;;;;6.85;1.92;;;28.90;82.80;;;;;;4977738;28;20049;-74
2022/07/18 09:47:09;;;;;;;7.25;1.67;;;29.00;84.30;;;;;;4987731;28;20502;-73
2022/07/18 09:49:36;;;;;;;8.75;1.95;;;29.20;84.60;;;;;;5005910;28;20058;-73
2022/07/18 09:52:07;;;;;;;7.38;1.90;;;29.30;83.00;;;;;;5016002;28;20071;-74
2022/07/18 09:54:44;;;;;;;4.75;1.50;;;29.70;83.60;;;;;;4995179;28;20038;-72
2022/07/18 09:57:22;;;;;;;5.18;1.67;;;30.20;84.10;;;;;;4997686;28;20115;-73
2022/07/18 09:59:49;;;;;;;4.35;1.63;;;30.50;82.30;;;;;;4989471;28;20054;-74
2022/07/18 10:02:15;;;;;;;6.28;2.05;;;30.50;77.50;;;;;;5010638;28;21536;-71
2022/07/18 10:04:41;;;;;;;6.60;1.90;;;30.40;76.20;;;;;;4994106;28;20129;-75
2022/07/18 10:07:07;;;;;;;6.55;2.00;;;30.30;74.90;;;;;;4986244;28;20038;-68
2022/07/18 10:09:34;;;;;;;7.38;2.08;;;30.30;76.30;;;;;;4990008;28;20057;-74
2022/07/18 10:12:00;;;;;;;8.73;2.20;;;30.20;73.10;;;;;;5004519;28;20053;-73
2022/07/18 10:14:27;;;;;;;5.13;1.92;;;30.20;75.90;;;;;;4973057;28;20060;-73
2022/07/18 10:16:54;;;;;;;5.68;1.90;;;30.40;76.50;;;;;;4956326;28;20046;-74
2022/07/18 10:19:20;;;;;;;5.70;1.90;;;30.60;77.30;;;;;;4984600;28;20069;-72
2022/07/18 10:21:48;;;;;;;7.38;1.83;;;30.90;73.00;;;;;;4981396;28;20523;-73
2022/07/18 10:24:18;;;;;;;7.50;2.30;;;31.10;75.20;;;;;;4978160;28;20073;-73
2022/07/18 10:26:43;;;;;;;7.78;2.22;;;31.30;72.60;;;;;;5010664;28;20579;-71
2022/07/18 10:29:13;;;;;;;5.35;1.90;;;31.40;71.90;;;;;;4969774;28;20130;-70
2022/07/18 10:31:58;;;;;;;6.68;2.35;;;31.40;72.20;;;;;;4970678;28;20339;-75
2022/07/18 10:34:34;;;;;;;6.32;2.05;;;31.40;69.10;;;;;;4955457;28;20046;-71
2022/07/18 10:37:02;;;;;;;6.28;2.10;;;31.40;70.50;;;;;;4987569;28;20361;-72
2022/07/18 10:39:47;;;;;;;6.57;2.53;;;31.50;70.70;;;;;;4974076;28;20054;-71
2022/07/18 10:42:14;;;;;;;10.13;2.40;;;31.60;68.80;;;;;;4988384;28;20046;-71
2022/07/18 10:44:40;;;;;;;6.60;2.72;;;31.80;69.60;;;;;;4976758;28;20040;-67
2022/07/18 10:47:24;;;;;;;5.07;2.10;;;31.80;68.10;;;;;;4963577;28;20123;-72
2022/07/18 10:49:51;;;;;;;5.53;2.15;;;31.70;66.30;;;;;;4980035;28;20066;-72
2022/07/18 10:52:26;;;;;;;6.95;2.53;;;31.70;67.80;;;;;;4995278;28;20054;-73
2022/07/18 10:55:04;;;;;;;7.22;2.28;;;31.70;67.60;;;;;;5001664;28;20054;-74
2022/07/18 10:57:34;;;;;;;5.18;2.13;;;31.80;66.70;;;;;;4987464;28;20076;-72
2022/07/18 11:00:11;;;;;;;6.18;2.38;;;31.80;66.00;;;;;;5002547;28;20126;-72
2022/07/18 11:02:41;;;;;;;6.70;2.70;;;31.70;65.60;;;;;;4992126;28;20262;-71
2022/07/18 11:05:27;;;;;;;8.07;2.70;;;31.70;64.90;;;;;;4998011;28;20053;-71
2022/07/18 11:08:02;;;;;;;7.47;2.50;;;31.60;63.00;;;;;;4964889;28;20050;-72
2022/07/18 11:10:51;;;;;;;7.75;2.88;;;31.50;65.80;;;;;;4972198;28;20104;-72
2022/07/18 11:13:27;;;;;;;6.15;2.45;;;31.50;65.90;;;;;;4987210;28;20176;-72
2022/07/18 11:16:06;;;;;;;5.75;2.50;;;31.50;65.20;;;;;;4973120;28;20426;-72
2022/07/18 11:18:49;;;;;;;4.03;2.20;;;31.70;66.90;;;;;;4972498;28;20136;-71
2022/07/18 11:21:29;;;;;;;6.82;2.30;;;31.80;65.30;;;;;;4987523;28;20395;-71
2022/07/18 11:24:07;;;;;;;4.78;2.30;;;31.90;65.20;;;;;;4969964;28;20054;-72
2022/07/18 11:26:34;;;;;;;8.90;2.97;;;32.00;65.00;;;;;;4962839;28;20123;-71
2022/07/18 11:29:01;;;;;;;7.60;2.70;;;32.20;66.40;;;;;;5003972;28;20092;-72
2022/07/18 11:31:28;;;;;;;6.18;2.78;;;32.30;65.90;;;;;;4995594;28;20065;-71
2022/07/18 11:33:55;;;;;;;7.82;3.30;;;32.30;65.30;;;;;;4975704;28;20139;-71
2022/07/18 11:36:23;;;;;;;7.93;3.10;;;32.30;63.40;;;;;;5002950;28;20153;-75
2022/07/18 11:38:54;;;;;;;10.10;3.33;;;32.20;62.70;;;;;;4975561;28;20427;-72
2022/07/18 11:41:21;;;;;;;7.45;2.90;;;32.20;62.70;;;;;;4986850;28;20153;-71
2022/07/18 11:43:49;;;;;;;5.90;2.78;;;32.20;63.50;;;;;;4981471;28;20395;-74
2022/07/18 11:46:17;;;;;;;7.22;2.70;;;32.30;63.10;;;;;;4980172;28;20038;-75
2022/07/18 11:48:47;;;;;;;6.90;2.70;;;32.30;63.90;;;;;;4978166;28;20142;-74
2022/07/18 11:51:14;;;;;;;;;;;32.30;64.40;;;;;;4975094;28;20461;-74
2022/07/18 11:53:49;;;;;;;6.32;2.75;;;32.30;64.00;;;;;;5004361;28;20304;-74
2022/07/18 11:56:16;;;;;;;4.75;2.22;;;32.10;63.80;;;;;;4984723;28;20502;-74
2022/07/18 11:58:43;;;;;;;7.95;2.60;;;32.00;64.20;;;;;;4971846;28;20129;-75
2022/07/18 12:01:10;;;;;;;7.28;3.00;;;32.00;63.50;;;;;;4973527;28;20570;-73
2022/07/18 12:03:50;;;;;;;6.63;2.80;;;31.90;62.60;;;;;;4968661;28;20051;-76
2022/07/18 12:06:21;;;;;;;6.68;2.80;;;31.80;63.60;;;;;;4960223;28;20491;-72
2022/07/18 12:08:52;;;;;;;7.03;3.05;;;31.70;63.20;;;;;;4992743;28;20518;-73
2022/07/18 12:11:27;;;;;;;6.22;2.85;;;31.50;62.20;;;;;;4977897;28;20077;-73
2022/07/18 12:14:19;;;;;;;6.72;2.50;;;31.40;63.20;;;;;;5012521;28;20951;-74
2022/07/18 12:16:56;;;;;;;7.18;2.75;;;31.40;63.60;;;;;;4979594;28;20053;-73
2022/07/18 12:19:31;;;;;;;6.55;2.55;;;31.20;63.80;;;;;;4984610;28;20052;-76
2022/07/18 12:22:17;;;;;;;6.75;2.78;;;31.00;63.70;;;;;;4980554;28;20384;-75
2022/07/18 12:24:57;;;;;;;6.53;2.70;;;30.70;62.80;;;;;;4973994;28;20057;-74
2022/07/18 12:27:32;;;;;;;7.25;3.05;;;30.60;64.40;;;;;;5006545;28;20174;-75
2022/07/18 12:30:04;;;;;;;7.10;2.70;;;30.70;64.90;;;;;;4990179;28;20145;-75
2022/07/18 12:32:43;;;;;;;5.68;2.20;;;30.70;65.30;;;;;;5012434;28;20107;-75
2022/07/18 12:35:15;;;;;;;6.40;2.72;;;30.70;65.10;;;;;;4989315;28;20395;-73
2022/07/18 12:37:50;;;;;;;7.35;2.60;;;30.60;65.10;;;;;;4980639;28;20124;-75
2022/07/18 12:40:16;;;;;;;8.27;2.53;;;30.40;64.10;;;;;;4994385;28;20105;-74
2022/07/18 12:42:42;;;;;;;12.40;2.90;;;30.10;63.90;;;;;;5008453;28;20126;-76
2022/07/18 12:45:10;;;;;;;6.05;2.80;;;29.90;64.70;;;;;;5007773;28;20105;-72
2022/07/18 12:47:36;;;;;;;8.52;3.20;;;29.80;65.80;;;;;;5002061;28;20595;-74
2022/07/18 12:50:05;;;;;;;6.65;2.70;;;29.80;66.10;;;;;;5000856;28;20040;-75
2022/07/18 12:52:32;;;;;;;7.93;2.97;;;29.90;65.90;;;;;;4993356;28;20103;-76
2022/07/18 12:54:58;;;;;;;6.63;2.80;;;30.10;65.10;;;;;;4992595;28;20050;-77
2022/07/18 12:57:24;;;;;;;8.93;2.97;;;30.30;65.90;;;;;;5009251;28;20733;-74
2022/07/18 12:59:49;;;;;;;7.28;2.80;;;30.60;65.70;;;;;;4976334;28;20050;-73